Terminal Aerodrome Forecast
Issued by NWS

Home | Current Version | Previous Version | Text Only | Print | Product List | Glossary Off
Versions: 1 2 3 4 5 6 7 8 9 10 11 12 13 14 15 16 17 18 19 20 21 22 23 24 25

000
FTUS43 KABR 061515 AAA
TAFMBG
TAF AMD
KMBG 061515Z 0615/0712 31026G41KT 3/4SM -SN VCSH OVC015
      TEMPO 0616/0617 2SM BLSN BKN025
     FM061700 31027G39KT 3SM BLSN BKN035
     FM061900 31024G36KT 6SM BLSN BKN035
     FM062200 31021G31KT P6SM BKN070=

USA.gov is the U.S. government's official web portal to all federal, state and local government web resources and services.